createdAt,value
2023-09-26T00:00:00.444Z,5.90
2023-09-26T00:03:46.206Z,7.70
2023-09-26T00:07:14.056Z,7.90
2023-09-26T00:10:41.058Z,5.60
2023-09-26T00:14:07.751Z,6.20
2023-09-26T00:17:34.114Z,9.60
2023-09-26T00:21:00.183Z,5.10
2023-09-26T00:24:26.413Z,8.60
2023-09-26T00:27:54.121Z,7.30
2023-09-26T00:31:20.718Z,6.60
2023-09-26T00:34:47.257Z,7.80
2023-09-26T00:38:13.701Z,8.90
2023-09-26T00:41:40.187Z,11.30
2023-09-26T00:45:07.726Z,7.10
2023-09-26T00:48:34.675Z,7.60
2023-09-26T00:52:02.748Z,9.80
2023-09-26T00:55:29.200Z,6.60
2023-09-26T00:58:55.410Z,7.80
2023-09-26T01:02:23.497Z,7.40
2023-09-26T01:05:49.464Z,8.80
2023-09-26T01:09:16.301Z,6.50
2023-09-26T01:12:42.853Z,9.20
2023-09-26T01:16:22.985Z,7.50
2023-09-26T01:19:49.370Z,8.40
2023-09-26T01:23:17.138Z,7.70
2023-09-26T01:26:42.959Z,8.90
2023-09-26T01:30:12.488Z,8.40
2023-09-26T01:33:39.093Z,6.50
2023-09-26T01:37:05.127Z,4.90
2023-09-26T01:40:31.357Z,6.80
2023-09-26T01:43:57.121Z,8.20
2023-09-26T01:47:34.764Z,10.50
2023-09-26T01:51:00.470Z,7.50
2023-09-26T01:54:26.189Z,7.80
2023-09-26T01:57:53.290Z,6.10
2023-09-26T02:01:19.850Z,5.90
2023-09-26T02:04:45.746Z,8.00
2023-09-26T02:08:11.872Z,6.30
2023-09-26T02:11:37.887Z,8.20
2023-09-26T02:15:06.075Z,6.10
2023-09-26T02:18:32.309Z,8.20
2023-09-26T02:21:58.680Z,4.00
2023-09-26T02:25:25.691Z,8.50
2023-09-26T02:28:51.833Z,6.40
2023-09-26T02:32:18.031Z,7.80
2023-09-26T02:35:44.325Z,6.30
2023-09-26T02:39:10.545Z,5.50
2023-09-26T02:42:38.179Z,7.90
2023-09-26T02:46:04.226Z,10.10
2023-09-26T02:49:30.536Z,4.70
2023-09-26T02:52:56.858Z,8.30
2023-09-26T02:56:22.752Z,5.00
2023-09-26T02:59:49.590Z,6.40
2023-09-26T03:03:15.702Z,5.50
2023-09-26T03:06:41.631Z,7.80
2023-09-26T03:10:12.352Z,6.20
2023-09-26T03:13:39.183Z,7.00
2023-09-26T03:17:07.103Z,6.50
2023-09-26T03:20:33.116Z,5.80
2023-09-26T03:23:58.903Z,5.60
2023-09-26T03:27:25.750Z,8.70
2023-09-26T03:30:51.648Z,8.60
2023-09-26T03:34:17.532Z,7.80
2023-09-26T03:37:43.758Z,7.00
2023-09-26T03:41:09.952Z,7.90
2023-09-26T03:44:36.017Z,5.50
2023-09-26T03:48:02.361Z,7.80
2023-09-26T03:51:28.612Z,12.60
2023-09-26T03:54:55.020Z,7.10
2023-09-26T03:58:21.283Z,11.30
2023-09-26T04:01:48.852Z,6.40
2023-09-26T04:05:14.999Z,10.50
2023-09-26T04:08:41.870Z,9.60
2023-09-26T04:12:09.117Z,8.50
2023-09-26T04:15:38.416Z,7.60
2023-09-26T04:19:04.549Z,6.90
2023-09-26T04:22:30.700Z,7.60
2023-09-26T04:25:56.669Z,13.20
2023-09-26T04:29:22.607Z,7.10
2023-09-26T04:32:49.144Z,8.30
2023-09-26T04:36:15.154Z,7.20
2023-09-26T04:39:40.910Z,8.00
2023-09-26T04:43:08.119Z,10.20
2023-09-26T04:46:34.301Z,7.20
2023-09-26T04:50:00.362Z,5.60
2023-09-26T04:53:26.326Z,6.30
2023-09-26T04:56:52.211Z,7.40
2023-09-26T05:00:21.307Z,10.00
2023-09-26T05:03:47.992Z,8.60
2023-09-26T05:07:13.870Z,8.00
2023-09-26T05:10:41.676Z,7.90
2023-09-26T05:14:07.739Z,7.30
2023-09-26T05:17:34.060Z,7.80
2023-09-26T05:21:00.463Z,6.40
2023-09-26T05:24:27.009Z,7.30
2023-09-26T05:27:53.243Z,5.90
2023-09-26T05:31:22.176Z,7.30
2023-09-26T05:34:49.553Z,6.90
2023-09-26T05:38:15.482Z,7.80
2023-09-26T05:41:41.911Z,10.70
2023-09-26T05:45:10.064Z,7.40
2023-09-26T05:48:37.266Z,4.50
2023-09-26T05:52:03.852Z,11.80
2023-09-26T05:55:30.271Z,8.60
2023-09-26T05:58:56.235Z,8.30
2023-09-26T06:02:22.380Z,7.40
2023-09-26T06:05:49.392Z,6.10
2023-09-26T06:09:15.444Z,7.20
2023-09-26T06:12:41.173Z,11.90
2023-09-26T06:16:09.610Z,10.10
2023-09-26T06:19:35.715Z,8.80
2023-09-26T06:23:02.538Z,9.70
2023-09-26T06:26:29.704Z,6.30
2023-09-26T06:29:55.834Z,8.80
2023-09-26T06:33:21.979Z,10.10
2023-09-26T06:36:49.121Z,7.30
2023-09-26T06:40:15.734Z,9.70
2023-09-26T06:43:41.895Z,6.90
2023-09-26T06:47:07.938Z,10.70
2023-09-26T06:50:34.366Z,11.20
2023-09-26T06:54:00.250Z,7.80
2023-09-26T06:57:27.992Z,7.80
2023-09-26T07:00:56.524Z,10.30
2023-09-26T07:04:22.799Z,7.80
2023-09-26T07:07:48.921Z,9.50
2023-09-26T07:11:15.403Z,8.00
2023-09-26T07:14:41.810Z,7.60
2023-09-26T07:18:11.495Z,7.10
2023-09-26T07:21:37.897Z,9.70
2023-09-26T07:25:06.013Z,7.70
2023-09-26T07:28:33.270Z,13.20
2023-09-26T07:31:59.757Z,7.80
2023-09-26T07:35:27.251Z,12.20
2023-09-26T07:38:53.640Z,11.90
2023-09-26T07:42:19.781Z,7.80
2023-09-26T07:45:46.109Z,8.50
2023-09-26T07:49:12.022Z,11.80
2023-09-26T07:52:38.347Z,10.50
2023-09-26T07:56:04.426Z,7.30
2023-09-26T07:59:30.457Z,9.80
2023-09-26T08:02:56.214Z,8.60
2023-09-26T08:06:23.317Z,5.20
2023-09-26T08:09:49.877Z,11.30
2023-09-26T08:13:16.521Z,9.10
2023-09-26T08:16:42.842Z,7.40
2023-09-26T08:20:11.324Z,10.10
2023-09-26T08:23:37.542Z,8.90
2023-09-26T08:27:03.154Z,9.70
2023-09-26T08:30:29.643Z,7.20
2023-09-26T08:33:56.208Z,5.60
2023-09-26T08:37:24.876Z,7.70
2023-09-26T08:40:56.278Z,6.50
2023-09-26T08:44:22.772Z,7.10
2023-09-26T08:47:50.890Z,10.40
2023-09-26T08:51:17.211Z,8.30
2023-09-26T08:54:43.283Z,8.20
2023-09-26T08:58:10.864Z,8.60
2023-09-26T09:01:37.230Z,8.80
2023-09-26T09:05:03.470Z,8.30
2023-09-26T09:08:29.828Z,13.10
2023-09-26T09:11:55.706Z,8.90
2023-09-26T09:15:26.057Z,8.00
2023-09-26T09:18:58.870Z,11.50
2023-09-26T09:25:51.633Z,15.40
2023-09-26T09:29:23.444Z,11.50
2023-09-26T09:32:50.192Z,8.20
2023-09-26T09:36:16.953Z,11.70
2023-09-26T09:39:42.766Z,9.30
2023-09-26T09:43:09.465Z,9.40
2023-09-26T09:46:40.459Z,11.30
2023-09-26T09:50:09.413Z,11.00
2023-09-26T09:53:38.018Z,8.90
2023-09-26T09:57:11.381Z,9.10
2023-09-26T10:00:40.744Z,16.70
2023-09-26T10:04:09.433Z,10.90
2023-09-26T10:07:37.705Z,10.60
2023-09-26T10:11:09.543Z,16.10
2023-09-26T10:14:35.992Z,8.70
2023-09-26T10:18:08.210Z,12.50
2023-09-26T10:21:34.464Z,10.10
2023-09-26T10:25:02.761Z,11.30
2023-09-26T10:28:29.336Z,11.20
2023-09-26T10:31:59.510Z,16.20
2023-09-26T10:35:30.206Z,12.60
2023-09-26T10:39:03.985Z,14.30
2023-09-26T10:43:14.914Z,16.60
2023-09-26T10:46:20.693Z,12.00
2023-09-26T10:49:47.238Z,15.40
2023-09-26T10:53:15.036Z,13.80
2023-09-26T10:56:50.116Z,13.60
2023-09-26T11:00:20.651Z,12.70
2023-09-26T11:03:46.911Z,14.90
2023-09-26T11:07:13.806Z,12.60
2023-09-26T11:10:40.281Z,11.10
2023-09-26T11:14:07.604Z,15.30
2023-09-26T11:17:34.989Z,15.40
2023-09-26T11:21:23.978Z,10.70
2023-09-26T11:24:52.012Z,12.10
2023-09-26T11:28:19.214Z,13.00
2023-09-26T11:31:47.053Z,11.70
2023-09-26T11:35:13.018Z,16.40
2023-09-26T11:38:49.089Z,14.90
2023-09-26T11:42:18.957Z,13.90
2023-09-26T11:45:45.463Z,11.70
2023-09-26T11:49:11.698Z,17.80
2023-09-26T11:52:37.759Z,14.70
2023-09-26T11:56:07.478Z,13.90
2023-09-26T11:59:34.917Z,16.10
2023-09-26T12:03:03.156Z,14.70
2023-09-26T12:06:29.264Z,17.00
2023-09-26T12:09:55.339Z,15.30
2023-09-26T12:13:21.680Z,12.40
2023-09-26T12:16:54.624Z,16.40
2023-09-26T12:20:25.722Z,15.40
2023-09-26T12:23:53.031Z,15.70
2023-09-26T12:27:18.825Z,12.30
2023-09-26T12:30:45.346Z,14.20
2023-09-26T12:34:11.483Z,11.90
2023-09-26T12:37:37.660Z,10.40
2023-09-26T12:41:04.402Z,16.20
2023-09-26T12:44:30.564Z,14.40
2023-09-26T12:47:56.713Z,11.80
2023-09-26T12:51:22.918Z,11.70
2023-09-26T12:54:50.216Z,11.60
2023-09-26T12:58:16.340Z,14.30
2023-09-26T13:01:43.099Z,16.50
2023-09-26T13:05:10.135Z,14.60
2023-09-26T13:08:35.759Z,11.40
2023-09-26T13:12:01.828Z,14.20
2023-09-26T13:15:29.710Z,14.80
2023-09-26T13:18:57.055Z,15.40
2023-09-26T13:22:23.277Z,14.10
2023-09-26T13:25:49.792Z,15.70
2023-09-26T13:29:15.966Z,12.00
2023-09-26T13:32:41.863Z,11.50
2023-09-26T13:36:08.593Z,13.20
2023-09-26T13:39:34.477Z,13.20
2023-09-26T13:43:00.889Z,11.40
2023-09-26T13:46:27.413Z,11.90
2023-09-26T13:49:54.009Z,15.30
2023-09-26T13:53:20.252Z,15.80
2023-09-26T13:56:48.880Z,14.40
2023-09-26T14:00:16.805Z,11.70
2023-09-26T14:03:43.437Z,15.60
2023-09-26T14:07:09.354Z,12.80
2023-09-26T14:10:37.494Z,9.50
2023-09-26T14:14:03.769Z,11.20
2023-09-26T14:17:29.748Z,10.70
2023-09-26T14:20:57.320Z,14.20
2023-09-26T14:24:23.690Z,13.10
2023-09-26T14:27:51.208Z,12.10
2023-09-26T14:31:20.662Z,12.80
2023-09-26T14:34:50.323Z,10.80
2023-09-26T14:38:18.336Z,11.00
2023-09-26T14:41:43.984Z,15.70
2023-09-26T14:45:11.382Z,12.30
2023-09-26T14:48:37.608Z,10.10
2023-09-26T14:52:03.959Z,15.50
2023-09-26T14:55:30.485Z,20.70
2023-09-26T14:58:56.515Z,20.90
2023-09-26T15:02:22.660Z,13.00
2023-09-26T15:05:51.262Z,13.30
2023-09-26T15:09:17.817Z,12.90
2023-09-26T15:12:44.468Z,14.10
2023-09-26T15:16:10.752Z,18.60
2023-09-26T15:19:37.535Z,14.90
2023-09-26T15:23:04.157Z,12.50
2023-09-26T15:26:30.121Z,16.20
2023-09-26T15:29:56.350Z,15.20
2023-09-26T15:33:22.715Z,11.90
2023-09-26T15:36:49.063Z,13.90
2023-09-26T15:40:15.603Z,15.40
2023-09-26T15:43:42.145Z,19.10
2023-09-26T15:47:09.104Z,16.70
2023-09-26T15:50:35.645Z,14.80
2023-09-26T15:54:01.887Z,12.90
2023-09-26T15:57:28.761Z,14.50
2023-09-26T16:00:55.269Z,12.20
2023-09-26T16:04:21.613Z,18.30
2023-09-26T16:07:47.950Z,43.10
2023-09-26T16:11:14.107Z,70.60
2023-09-26T16:14:41.564Z,33.70
2023-09-26T16:18:08.996Z,30.60
2023-09-26T16:21:35.609Z,16.30
2023-09-26T16:25:01.534Z,15.00
2023-09-26T16:28:27.749Z,12.40
2023-09-26T16:31:53.738Z,13.30
2023-09-26T16:35:20.123Z,14.30
2023-09-26T16:38:46.689Z,14.70
2023-09-26T16:42:12.963Z,13.70
2023-09-26T16:45:38.838Z,17.60
2023-09-26T16:49:04.865Z,11.50
2023-09-26T16:52:31.761Z,12.40
2023-09-26T16:55:58.007Z,14.30
2023-09-26T16:59:24.429Z,12.40
2023-09-26T17:02:50.922Z,15.40
2023-09-26T17:06:18.306Z,22.30
2023-09-26T17:09:44.652Z,18.70
2023-09-26T17:13:11.123Z,15.30
2023-09-26T17:16:37.556Z,19.70
2023-09-26T17:20:06.191Z,15.90
2023-09-26T17:23:32.090Z,18.80
2023-09-26T17:26:58.068Z,15.50
2023-09-26T17:30:27.233Z,14.50
2023-09-26T17:33:54.077Z,14.80
2023-09-26T17:37:21.739Z,15.50
2023-09-26T17:40:47.854Z,14.70
2023-09-26T17:44:14.174Z,13.20
2023-09-26T17:47:41.044Z,17.90
2023-09-26T17:51:12.204Z,15.00
2023-09-26T17:54:39.115Z,14.20
2023-09-26T17:58:08.733Z,19.40
2023-09-26T18:01:39.195Z,19.40
2023-09-26T18:05:06.495Z,31.60
2023-09-26T18:08:33.653Z,24.70
2023-09-26T18:12:00.899Z,21.40
2023-09-26T18:15:28.504Z,19.60
2023-09-26T18:18:54.827Z,19.50
2023-09-26T18:22:25.320Z,18.90
2023-09-26T18:25:51.542Z,26.40
2023-09-26T18:29:18.685Z,17.80
2023-09-26T18:32:45.146Z,18.70
2023-09-26T18:36:12.145Z,20.30
2023-09-26T18:39:39.283Z,17.90
2023-09-26T18:43:06.442Z,20.30
2023-09-26T18:46:32.736Z,18.30
2023-09-26T18:49:59.071Z,22.20
2023-09-26T18:53:25.745Z,24.80
2023-09-26T18:56:54.766Z,20.70
2023-09-26T19:00:21.652Z,20.90
2023-09-26T19:03:47.730Z,26.10
2023-09-26T19:07:14.158Z,24.00
2023-09-26T19:10:43.100Z,22.80
2023-09-26T19:14:08.871Z,24.10
2023-09-26T19:17:35.087Z,23.70
2023-09-26T19:21:01.533Z,27.80
2023-09-26T19:24:27.891Z,23.30
2023-09-26T19:27:56.204Z,23.40
2023-09-26T19:31:23.505Z,27.30
2023-09-26T19:34:50.781Z,21.60
2023-09-26T19:38:18.059Z,23.90
2023-09-26T19:41:44.512Z,20.20
2023-09-26T19:45:14.561Z,24.20
2023-09-26T19:48:40.412Z,24.90
2023-09-26T19:52:07.102Z,26.00
2023-09-26T19:55:33.308Z,22.10
2023-09-26T19:58:59.668Z,23.70
2023-09-26T20:02:26.171Z,27.80
2023-09-26T20:05:52.447Z,27.50
2023-09-26T20:09:18.847Z,21.90
2023-09-26T20:12:44.661Z,27.00
2023-09-26T20:16:10.840Z,25.40
2023-09-26T20:19:37.582Z,30.10
2023-09-26T20:23:07.179Z,26.20
2023-09-26T20:26:33.469Z,24.90
2023-09-26T20:29:59.797Z,26.90
2023-09-26T20:33:25.916Z,27.30
2023-09-26T20:36:52.361Z,26.80
2023-09-26T20:40:19.041Z,25.30
2023-09-26T20:43:45.004Z,23.40
2023-09-26T20:47:11.346Z,25.20
2023-09-26T20:50:37.614Z,26.20
2023-09-26T20:54:04.259Z,24.20
2023-09-26T20:57:30.517Z,24.40
2023-09-26T21:00:56.626Z,31.00
2023-09-26T21:04:23.116Z,23.30
2023-09-26T21:07:49.128Z,23.70
2023-09-26T21:11:15.102Z,25.30
2023-09-26T21:14:43.852Z,24.90
2023-09-26T21:18:10.194Z,23.10
2023-09-26T21:21:36.260Z,26.40
2023-09-26T21:25:02.852Z,22.20
2023-09-26T21:28:29.036Z,22.70
2023-09-26T21:31:55.528Z,22.60
2023-09-26T21:35:22.460Z,22.40
2023-09-26T21:38:49.232Z,24.00
2023-09-26T21:42:15.673Z,23.80
2023-09-26T21:45:41.643Z,28.70
2023-09-26T21:49:08.365Z,30.70
2023-09-26T21:52:35.285Z,27.30
2023-09-26T21:56:01.076Z,29.00
2023-09-26T21:59:33.040Z,27.80
2023-09-26T22:03:03.272Z,31.90
2023-09-26T22:06:29.450Z,28.10
2023-09-26T22:09:55.589Z,27.20
2023-09-26T22:13:28.184Z,32.40
2023-09-26T22:16:54.131Z,26.30
2023-09-26T22:20:23.362Z,27.80
2023-09-26T22:23:50.868Z,32.50
2023-09-26T22:27:17.215Z,28.50
2023-09-26T22:30:43.508Z,29.20
2023-09-26T22:34:09.852Z,24.70
2023-09-26T22:37:36.762Z,23.90
2023-09-26T22:41:03.049Z,28.30
2023-09-26T22:44:32.241Z,23.60
2023-09-26T22:47:58.427Z,26.10
2023-09-26T22:51:25.127Z,26.70
2023-09-26T22:54:51.012Z,25.60
2023-09-26T22:58:16.821Z,25.20
2023-09-26T23:01:43.102Z,26.00
2023-09-26T23:05:10.395Z,22.70
2023-09-26T23:08:36.643Z,26.40
2023-09-26T23:12:02.801Z,29.00
2023-09-26T23:15:28.921Z,29.00
2023-09-26T23:18:55.268Z,27.60
2023-09-26T23:22:21.547Z,24.30
2023-09-26T23:25:47.533Z,24.80
2023-09-26T23:29:14.130Z,26.10
2023-09-26T23:32:42.743Z,25.50
2023-09-26T23:36:13.919Z,29.80
2023-09-26T23:39:39.965Z,25.40
2023-09-26T23:43:07.529Z,27.90
2023-09-26T23:46:34.560Z,31.30
2023-09-26T23:50:02.717Z,29.00
2023-09-26T23:53:29.885Z,29.30
2023-09-26T23:56:56.109Z,30.90
